Calumet, Oklahoma
Current Conditions -  °F | °C
As of 5:15 AM on Monday 20 Oct 2014 (Local Time) from KRQO Reporting Station
Scattered Clouds Scattered Clouds  
Wind Chill: 57°   Ceiling: Unl
Heat Index: 57°   Visibility: 10mi
Dew Point: 54°   Wind: 9mph
Humidity: 88%   Direction: 200°SSW
Pressure: 30.03"   Gusts: NA
Location:  35.6°N, 98.12°W
Report Text: KRQO 201015Z AUTO 20008KT 10SM SCT065 14/12 A3003 RMK AO2
Loading
Personal Weather Stations






























Interactive Weather Map
Tropical Storm Tracking
New forecast layout! Learn more

10-Day Weather Forecast

Advertisements
Track Severe Weather on mobile